Time;durP1;ratioP1;P1;durP2;ratioP2;P2;SDS_P1;SDS_P2;PMS_P1;PMS_P2;Temp;Humidity;BMP_temperature;BMP_pressure;BME280_temperature;BME280_humidity;BME280_pressure;Samples;Min_cycle;Max_cycle;Signal;HPM_P1;HPM_P2
2020/12/19 00:02:12;;;;;;;37.63;15.00;;;;;;;4.05;100.00;100764.33;654724;218;23681;-72
2020/12/19 00:04:44;;;;;;;34.92;17.52;;;;;;;4.46;100.00;100766.20;647023;218;32719;-72
2020/12/19 00:07:17;;;;;;;80.65;20.88;;;;;;;4.88;100.00;100751.16;637127;222;33252;-72
2020/12/19 00:09:47;;;;;;;46.83;15.60;;;;;;;4.16;100.00;100759.84;655271;217;23642;-72
2020/12/19 00:12:22;;;;;;;58.37;15.67;;;;;;;4.26;100.00;100761.43;639443;221;28026;-72
2020/12/19 00:14:53;;;;;;;60.83;15.23;;;;;;;4.06;100.00;100752.30;641529;223;24793;-71
2020/12/19 00:17:24;;;;;;;27.53;12.90;;;;;;;3.81;100.00;100740.05;644109;222;24776;-72
2020/12/19 00:19:55;;;;;;;47.67;12.40;;;;;;;3.61;100.00;100740.36;658131;218;24955;-72
2020/12/19 00:22:26;;;;;;;22.30;12.00;;;;;;;3.47;100.00;100739.85;642884;221;24831;-72
2020/12/19 00:24:59;;;;;;;62.33;14.00;;;;;;;3.53;100.00;100744.66;652240;219;24751;-72
2020/12/19 00:27:29;;;;;;;67.70;13.53;;;;;;;3.56;100.00;100741.91;642621;221;24752;-72
2020/12/19 00:30:00;;;;;;;86.83;13.83;;;;;;;3.35;100.00;100742.66;638404;223;24808;-72
2020/12/19 00:32:31;;;;;;;62.67;11.70;;;;;;;3.26;100.00;100745.76;642112;223;26987;-71
2020/12/19 00:35:03;;;;;;;12.67;10.60;;;;;;;3.34;100.00;100738.88;653406;218;24731;-71
2020/12/19 00:37:41;;;;;;;34.73;12.10;;;;;;;3.58;100.00;100732.36;657515;218;24766;-71
2020/12/19 00:40:12;;;;;;;21.40;11.80;;;;;;;3.72;100.00;100731.57;642425;223;24816;-72
2020/12/19 00:42:44;;;;;;;39.27;13.60;;;;;;;3.68;100.00;100732.67;641794;223;24731;-72
2020/12/19 00:45:15;;;;;;;17.67;12.00;;;;;;;3.55;100.00;100729.52;640632;223;26066;-72
2020/12/19 00:47:46;;;;;;;15.67;11.47;;;;;;;3.50;100.00;100734.53;642597;221;26989;-72
2020/12/19 00:50:18;;;;;;;13.27;10.07;;;;;;;3.53;100.00;100738.23;641385;223;24843;-72
2020/12/19 00:52:48;;;;;;;20.53;11.70;;;;;;;3.60;100.00;100719.41;643813;223;24816;-72
2020/12/19 00:55:18;;;;;;;56.90;12.87;;;;;;;3.50;100.00;100717.81;652226;218;24730;-72
2020/12/19 00:57:49;;;;;;;12.23;9.73;;;;;;;3.34;100.00;100715.75;641509;223;24827;-72
2020/12/19 01:00:23;;;;;;;35.33;11.90;;;;;;;3.48;100.00;100710.20;659103;218;24742;-72
2020/12/19 01:02:55;;;;;;;27.70;11.67;;;;;;;3.60;100.00;100716.38;654460;218;24776;-71
2020/12/19 01:05:27;;;;;;;13.70;9.67;;;;;;;3.42;100.00;100713.12;647304;218;24740;-72
2020/12/19 01:07:58;;;;;;;14.43;10.77;;;;;;;3.33;100.00;100712.35;641141;223;25972;-72
2020/12/19 01:10:28;;;;;;;13.83;9.93;;;;;;;3.33;100.00;100716.67;650211;218;24752;-72
2020/12/19 01:12:59;;;;;;;14.83;9.77;;;;;;;3.38;100.00;100706.52;637814;221;24810;-72
2020/12/19 01:15:33;;;;;;;14.30;10.17;;;;;;;3.46;100.00;100712.03;652328;216;25215;-72
2020/12/19 01:18:05;;;;;;;14.60;12.53;;;;;;;3.98;100.00;100697.44;636383;222;32797;-72
2020/12/19 01:20:34;;;;;;;25.60;12.40;;;;;;;3.82;100.00;100701.37;640487;222;23672;-72
2020/12/19 01:23:05;;;;;;;19.33;12.20;;;;;;;3.86;100.00;100704.13;651282;218;26990;-72
2020/12/19 01:25:34;;;;;;;22.73;12.17;;;;;;;3.92;100.00;100696.49;639421;223;24789;-71
2020/12/19 01:28:05;;;;;;;38.58;16.30;;;;;;;4.45;100.00;100690.69;634944;223;32988;-72
2020/12/19 01:30:36;;;;;;;23.87;15.10;;;;;;;4.43;100.00;100695.11;642146;218;33069;-71
2020/12/19 01:33:05;;;;;;;61.90;15.70;;;;;;;4.08;100.00;100702.41;649089;218;24781;-73
2020/12/19 01:35:36;;;;;;;15.40;11.50;;;;;;;3.85;100.00;100705.51;645721;222;24734;-72
2020/12/19 01:38:07;;;;;;;13.47;11.07;;;;;;;3.87;100.00;100702.38;651115;219;24755;-72
2020/12/19 01:40:41;;;;;;;14.50;11.30;;;;;;;3.64;100.00;100702.88;639289;223;24822;-72
2020/12/19 01:43:11;;;;;;;17.45;13.68;;;;;;;4.08;100.00;100705.41;650659;218;32625;-72
2020/12/19 01:45:42;;;;;;;15.00;12.43;;;;;;;3.60;100.00;100702.24;640283;223;23674;-72
2020/12/19 01:48:15;;;;;;;14.50;11.27;;;;;;;3.56;100.00;100699.02;651405;217;24785;-74
2020/12/19 01:50:48;;;;;;;13.50;10.40;;;;;;;3.65;100.00;100699.39;653773;218;25112;-72
2020/12/19 01:53:28;;;;;;;21.60;14.20;;;;;;;4.19;100.00;100692.73;644086;218;32715;-74
2020/12/19 01:55:58;;;;;;;27.57;17.10;;;;;;;4.59;100.00;100690.30;644001;218;43194;-74
2020/12/19 01:58:32;;;;;;;17.70;13.60;;;;;;;4.25;100.00;100700.56;649073;218;25018;-72
2020/12/19 02:01:01;;;;;;;22.50;16.40;;;;;;;4.77;100.00;100682.25;635125;222;32776;-72
2020/12/19 02:03:32;;;;;;;15.37;11.77;;;;;;;4.17;100.00;100691.55;650228;218;23681;-72
2020/12/19 02:06:03;;;;;;;17.93;13.43;;;;;;;4.30;100.00;100694.20;641437;221;29278;-72
2020/12/19 02:08:32;;;;;;;17.70;12.73;;;;;;;4.35;100.00;100683.62;642073;223;24838;-72
2020/12/19 02:11:02;;;;;;;14.87;11.40;;;;;;;4.35;100.00;100687.02;639269;223;24805;-72
2020/12/19 02:13:31;;;;;;;14.80;10.97;;;;;;;4.30;100.00;100680.05;648219;219;24756;-72
2020/12/19 02:16:01;;;;;;;15.27;11.33;;;;;;;4.12;100.00;100679.42;648392;221;24851;-72
2020/12/19 02:18:33;;;;;;;15.20;12.20;;;;;;;4.56;100.00;100674.59;640179;221;32806;-72
2020/12/19 02:21:01;;;;;;;14.23;11.40;;;;;;;4.38;100.00;100666.72;644132;223;26859;-72
2020/12/19 02:23:30;;;;;;;14.40;12.10;;;;;;;4.43;100.00;100662.92;651075;218;24753;-72
2020/12/19 02:26:01;;;;;;;13.30;10.93;;;;;;;4.35;100.00;100661.27;639935;223;24807;-72
2020/12/19 02:28:34;;;;;;;14.80;10.93;;;;;;;4.29;100.00;100659.09;651732;218;24910;-72
2020/12/19 02:33:48;;;;;;;15.73;12.23;;;;;;;4.45;100.00;100650.78;649509;217;25390;-73
2020/12/19 02:36:21;;;;;;;14.50;11.23;;;;;;;4.42;100.00;100654.02;642557;223;24783;-72
2020/12/19 02:38:54;;;;;;;15.53;11.27;;;;;;;4.33;100.00;100642.98;640979;223;24859;-72
2020/12/19 02:41:27;;;;;;;13.87;11.67;;;;;;;4.26;100.00;100643.02;637553;223;24797;-72
2020/12/19 02:43:59;;;;;;;11.90;9.93;;;;;;;4.17;100.00;100637.49;641893;222;24799;-72
2020/12/19 02:46:28;;;;;;;12.43;9.93;;;;;;;4.09;100.00;100644.87;642207;223;24829;-71
2020/12/19 02:49:02;;;;;;;12.20;10.10;;;;;;;4.12;100.00;100648.54;653185;219;24788;-71
2020/12/19 02:51:35;;;;;;;16.30;11.63;;;;;;;4.32;100.00;100650.34;640435;224;25104;-72
2020/12/19 02:54:06;;;;;;;15.43;11.60;;;;;;;4.18;100.00;100643.46;641217;224;25987;-71
2020/12/19 02:56:38;;;;;;;16.20;11.87;;;;;;;4.22;100.00;100651.36;654515;219;24758;-72
2020/12/19 02:59:09;;;;;;;12.07;10.37;;;;;;;4.18;100.00;100646.04;653648;218;24754;-71
2020/12/19 03:01:39;;;;;;;12.83;10.27;;;;;;;4.17;100.00;100643.09;652916;219;24792;-72
2020/12/19 03:04:11;;;;;;;15.95;13.50;;;;;;;4.71;100.00;100640.14;634442;224;32859;-72
2020/12/19 03:06:45;;;;;;;17.30;13.13;;;;;;;4.36;100.00;100642.78;654909;218;24758;-72
2020/12/19 03:09:18;;;;;;;16.40;11.20;;;;;;;4.22;100.00;100635.91;639663;222;24840;-72
2020/12/19 03:11:49;;;;;;;14.58;13.00;;;;;;;4.74;100.00;100636.53;647243;219;32656;-72
2020/12/19 03:14:21;;;;;;;17.10;12.33;;;;;;;4.24;100.00;100627.66;653573;219;24898;-72
2020/12/19 03:16:52;;;;;;;17.00;14.10;;;;;;;4.83;100.00;100632.09;647013;218;32985;-72
2020/12/19 03:19:25;;;;;;;16.67;14.55;;;;;;;4.93;99.86;100627.19;645647;219;43408;-72
2020/12/19 03:21:59;;;;;;;16.53;12.20;;;;;;;4.29;100.00;100633.34;638674;224;23730;-72
2020/12/19 03:24:30;;;;;;;17.07;14.10;;;;;;;4.80;100.00;100621.16;635469;223;32758;-71
2020/12/19 03:27:01;;;;;;;16.50;12.40;;;;;;;4.35;100.00;100624.40;640275;223;26854;-72
2020/12/19 03:29:35;;;;;;;14.30;11.00;;;;;;;4.11;100.00;100622.44;641803;224;24784;-72
2020/12/19 03:32:14;;;;;;;14.37;11.00;;;;;;;4.07;100.00;100635.10;641036;224;25953;-71
2020/12/19 03:34:46;;;;;;;14.60;11.33;;;;;;;4.09;100.00;100633.28;637774;224;24819;-74
2020/12/19 03:37:18;;;;;;;12.40;10.67;;;;;;;3.96;100.00;100628.52;635700;224;24958;-74
2020/12/19 03:39:50;;;;;;;17.63;12.50;;;;;;;3.96;100.00;100623.83;641940;223;24789;-72
2020/12/19 03:42:20;;;;;;;13.50;10.43;;;;;;;3.82;100.00;100618.23;639776;224;24836;-72
2020/12/19 03:47:35;;;;;;;10.80;8.60;;;;;;;3.58;100.00;100618.76;650357;217;25407;-74
2020/12/19 03:50:05;;;;;;;11.37;9.67;;;;;;;3.51;100.00;100623.87;637960;224;24807;-73
2020/12/19 03:52:38;;;;;;;13.50;9.50;;;;;;;3.42;100.00;100612.87;640084;222;24799;-72
2020/12/19 03:55:09;;;;;;;11.83;9.20;;;;;;;3.50;100.00;100613.69;643087;221;24802;-72
2020/12/19 03:57:40;;;;;;;11.20;8.73;;;;;;;3.46;100.00;100605.80;643589;222;25079;-72
2020/12/19 04:00:12;;;;;;;12.45;10.70;;;;;;;3.94;100.00;100596.91;637627;221;32707;-72
2020/12/19 04:02:42;;;;;;;14.77;10.07;;;;;;;3.30;100.00;100595.58;642924;222;23699;-72
2020/12/19 04:05:14;;;;;;;12.90;9.50;;;;;;;3.22;100.00;100598.58;643192;221;25315;-72
2020/12/19 04:07:45;;;;;;;13.72;11.40;;;;;;;3.72;100.00;100596.54;640558;221;32732;-71
2020/12/19 04:10:17;;;;;;;10.17;9.13;;;;;;;3.14;100.00;100603.36;644076;220;23740;-73
2020/12/19 04:12:51;;;;;;;12.07;10.78;;;;;;;3.66;100.00;100594.31;635460;221;33606;-72
2020/12/19 04:15:23;;;;;;;11.77;9.80;;;;;;;3.26;100.00;100597.97;655079;218;23673;-72
2020/12/19 04:17:52;;;;;;;11.73;9.23;;;;;;;3.07;100.00;100596.07;653443;219;24817;-72
2020/12/19 04:20:23;;;;;;;26.62;10.63;;;;;;;3.63;100.00;100589.36;637750;221;32738;-72
2020/12/19 04:22:54;;;;;;;11.10;9.10;;;;;;;3.66;100.00;100580.17;651781;218;43209;-72
2020/12/19 04:25:25;;;;;;;22.70;9.40;;;;;;;3.07;100.00;100581.48;642142;222;23663;-72
2020/12/19 04:27:57;;;;;;;17.83;9.47;;;;;;;3.02;100.00;100585.24;648055;222;24779;-72
2020/12/19 04:30:30;;;;;;;7.27;6.57;;;;;;;2.76;100.00;100582.41;645378;221;24857;-72
2020/12/19 04:33:00;;;;;;;10.88;7.80;;;;;;;3.27;100.00;100584.20;633705;221;32696;-73
2020/12/19 04:38:23;;;;;;;51.28;11.53;;;;;;;3.30;100.00;100571.63;660166;213;32368;-74
2020/12/19 04:40:58;;;;;;;12.23;8.83;;;;;;;2.64;100.00;100574.92;655753;217;23628;-72
2020/12/19 04:43:31;;;;;;;12.57;7.70;;;;;;;2.70;100.00;100575.52;654631;213;27970;-72
2020/12/19 04:46:04;;;;;;;39.53;8.37;;;;;;;2.77;100.00;100585.34;641724;221;24802;-72
2020/12/19 04:48:39;;;;;;;8.43;7.10;;;;;;;2.73;100.00;100585.16;659980;217;24806;-72
2020/12/19 04:51:09;;;;;;;9.87;8.50;;;;;;;2.72;100.00;100574.52;640114;220;24788;-72
2020/12/19 04:53:39;;;;;;;11.93;8.07;;;;;;;2.67;100.00;100578.63;639349;222;24808;-72
2020/12/19 04:56:10;;;;;;;11.70;10.50;;;;;;;3.14;100.00;100576.83;658853;216;32650;-72
2020/12/19 04:58:43;;;;;;;10.90;8.60;;;;;;;2.79;100.00;100573.70;648715;221;23642;-72
2020/12/19 05:01:15;;;;;;;9.03;7.77;;;;;;;2.49;100.00;100573.67;645287;220;24827;-73
2020/12/19 05:03:47;;;;;;;15.00;9.47;;;;;;;2.62;100.00;100579.78;658770;216;24749;-72
2020/12/19 05:06:21;;;;;;;11.50;8.33;;;;;;;2.63;100.00;100582.72;642110;221;26925;-72
2020/12/19 05:08:53;;;;;;;10.53;8.10;;;;;;;2.61;100.00;100576.39;639815;221;24818;-73
2020/12/19 05:11:23;;;;;;;9.80;8.48;;;;;;;3.01;100.00;100572.86;634428;220;32694;-72
2020/12/19 05:13:53;;;;;;;11.03;8.57;;;;;;;2.41;100.00;100578.42;642341;222;23662;-72
2020/12/19 05:16:25;;;;;;;10.90;8.47;;;;;;;2.45;100.00;100576.05;652061;217;24797;-72
2020/12/19 05:18:58;;;;;;;10.50;9.10;;;;;;;2.29;100.00;100579.91;640668;221;27997;-73
2020/12/19 05:21:32;;;;;;;10.30;7.47;;;;;;;2.07;100.00;100578.94;641221;221;25251;-72
2020/12/19 05:24:02;;;;;;;11.88;9.08;;;;;;;2.70;100.00;100575.52;653320;216;32855;-72
2020/12/19 05:26:32;;;;;;;9.13;7.90;;;;;;;2.16;100.00;100569.48;657932;216;23664;-72
2020/12/19 05:29:03;;;;;;;10.67;8.50;;;;;;;2.14;100.00;100578.17;651204;220;27156;-72
2020/12/19 05:31:35;;;;;;;16.17;9.20;;;;;;;2.28;100.00;100584.67;644665;221;25050;-72
2020/12/19 05:34:07;;;;;;;18.73;12.05;;;;;;;2.88;100.00;100581.72;642481;221;32746;-72
2020/12/19 05:36:39;;;;;;;13.10;10.30;;;;;;;2.52;100.00;100587.16;639506;221;24682;-73
2020/12/19 05:39:10;;;;;;;25.40;11.07;;;;;;;2.70;100.00;100577.62;658709;216;24770;-72
2020/12/19 05:41:41;;;;;;;10.63;8.17;;;;;;;2.33;100.00;100583.95;660179;216;24766;-72
2020/12/19 05:44:12;;;;;;;10.50;8.53;;;;;;;2.25;100.00;100589.52;640628;221;24846;-72
2020/12/19 05:46:43;;;;;;;10.20;8.80;;;;;;;2.45;100.00;100601.25;658234;216;32565;-72
2020/12/19 05:49:21;;;;;;;10.07;8.80;;;;;;;2.25;100.00;100602.34;644743;219;23672;-72
2020/12/19 05:51:53;;;;;;;12.87;11.23;;;;;;;2.76;100.00;100606.80;636678;220;32754;-72
2020/12/19 05:54:25;;;;;;;13.10;11.30;;;;;;;2.55;100.00;100602.41;644935;221;25924;-72
2020/12/19 05:56:58;;;;;;;12.50;11.30;;;;;;;3.06;100.00;100591.85;641140;220;32739;-72
2020/12/19 05:59:30;;;;;;;12.03;10.88;;;;;;;2.59;100.00;100601.78;640566;220;32834;-72
2020/12/19 06:02:00;;;;;;;12.55;11.25;;;;;;;3.34;100.00;100597.05;640980;220;32810;-72
2020/12/19 06:04:33;;;;;;;11.30;10.10;;;;;;;2.94;100.00;100596.77;662910;216;23618;-72
2020/12/19 06:07:03;;;;;;;12.50;9.80;;;;;;;2.69;100.00;100593.95;663142;216;24756;-72
2020/12/19 06:09:33;;;;;;;9.07;8.13;;;;;;;2.64;100.00;100593.36;646906;217;25070;-72
2020/12/19 06:14:46;;;;;;;8.17;7.37;;;;;;;2.70;100.00;100596.06;651187;217;25384;-74
2020/12/19 06:17:18;;;;;;;9.20;8.20;;;;;;;2.73;100.00;100594.14;637192;224;24805;-71
2020/12/19 06:19:49;;;;;;;8.47;7.33;;;;;;;2.60;100.00;100593.99;637888;225;24814;-72
2020/12/19 06:22:20;;;;;;;8.43;7.63;;;;;;;2.45;100.00;100595.30;637834;221;24765;-71
2020/12/19 06:24:56;;;;;;;8.60;7.60;;;;;;;2.36;100.00;100596.16;623928;229;24809;-71
2020/12/19 06:27:38;;;;;;;12.23;8.70;;;;;;;2.36;100.00;100595.33;634423;225;27922;-72
2020/12/19 06:30:08;;;;;;;8.83;7.73;;;;;;;2.34;100.00;100587.72;618286;229;24872;-72
2020/12/19 06:32:39;;;;;;;8.93;8.00;;;;;;;2.46;100.00;100586.68;621331;227;24822;-72
2020/12/19 06:35:12;;;;;;;11.40;8.40;;;;;;;2.08;100.00;100585.27;622586;229;25128;-72
2020/12/19 06:40:25;;;;;;;9.43;8.00;;;;;;;2.08;100.00;100594.70;651100;217;25407;-74
2020/12/19 06:43:11;;;;;;;8.17;7.37;;;;;;;2.17;100.00;100587.80;642114;220;24775;-72
2020/12/19 06:45:43;;;;;;;8.43;7.47;;;;;;;2.17;100.00;100585.70;637776;224;24793;-73
2020/12/19 06:48:27;;;;;;;9.20;8.17;;;;;;;2.25;100.00;100593.80;626673;227;24842;-74
2020/12/19 06:51:03;;;;;;;8.47;7.10;;;;;;;2.37;100.00;100587.54;627384;228;25294;-73
2020/12/19 06:53:35;;;;;;;10.78;9.43;;;;;;;2.67;100.00;100581.62;621019;229;43386;-76
2020/12/19 06:56:08;;;;;;;14.10;10.40;;;;;;;2.32;100.00;100590.83;626291;229;23668;-73
2020/12/19 06:58:38;;;;;;;24.87;16.90;;;;;;;2.42;100.00;100592.91;626572;228;24882;-73
2020/12/19 07:01:27;;;;;;;15.23;11.40;;;;;;;2.22;100.00;100594.79;625492;229;27023;-74
2020/12/19 07:03:57;;;;;;;25.83;15.73;;;;;;;2.24;100.00;100601.12;626376;229;24787;-73
2020/12/19 07:06:29;;;;;;;20.40;13.90;;;;;;;2.16;100.00;100602.83;633999;225;24827;-72
2020/12/19 07:08:59;;;;;;;35.13;20.30;;;;;;;2.27;100.00;100603.55;638166;225;24839;-73
2020/12/19 07:11:41;;;;;;;32.40;16.40;;;;;;;2.32;100.00;100597.23;635827;225;24839;-73
2020/12/19 07:14:16;;;;;;;41.97;20.60;;;;;;;2.38;100.00;100595.61;640881;224;24808;-73
2020/12/19 07:16:47;;;;;;;43.23;21.00;;;;;;;2.34;100.00;100592.85;625001;229;25201;-72
2020/12/19 07:19:18;;;;;;;41.20;21.85;;;;;;;2.77;100.00;100590.48;620661;227;32832;-73
2020/12/19 07:21:50;;;;;;;57.53;23.13;;;;;;;2.53;100.00;100596.97;625505;229;23664;-74
2020/12/19 07:24:22;;;;;;;46.30;22.83;;;;;;;2.43;100.00;100602.25;624910;229;24952;-73
2020/12/19 07:26:51;;;;;;;21.93;14.10;;;;;;;2.24;100.00;100614.77;616434;229;32375;-72
2020/12/19 07:29:21;;;;;;;26.57;15.13;;;;;;;2.34;100.00;100621.53;626428;229;24802;-72
2020/12/19 07:31:52;;;;;;;18.60;11.50;;;;;;;2.13;100.00;100609.41;624134;229;24896;-72
2020/12/19 07:34:21;;;;;;;20.12;14.25;;;;;;;2.80;100.00;100616.44;618272;224;32915;-72
2020/12/19 07:36:51;;;;;;;11.93;10.10;;;;;;;2.37;100.00;100624.75;640568;223;23962;-72
2020/12/19 07:39:20;;;;;;;15.53;12.03;;;;;;;2.80;100.00;100621.11;632431;225;33131;-73
2020/12/19 07:41:56;;;;;;;18.07;13.23;;;;;;;2.54;100.00;100633.30;626170;229;23661;-73
2020/12/19 07:44:26;;;;;;;15.40;11.90;;;;;;;2.24;100.00;100634.02;626461;229;24818;-74
2020/12/19 07:46:58;;;;;;;18.67;15.30;;;;;;;2.28;100.00;100638.10;627441;227;24851;-72
2020/12/19 07:49:31;;;;;;;15.30;12.40;;;;;;;2.23;100.00;100632.82;625367;228;24998;-73
2020/12/19 07:52:07;;;;;;;18.95;15.45;;;;;;;2.78;100.00;100625.52;620434;228;33042;-72
2020/12/19 07:54:36;;;;;;;18.00;15.03;;;;;;;3.08;99.63;100619.56;621457;227;32786;-73
2020/12/19 07:59:45;;;;;;;16.67;12.70;;;;;;;2.41;100.00;100642.12;651423;217;24504;-75
2020/12/19 08:02:19;;;;;;;13.77;11.30;;;;;;;2.39;100.00;100647.77;645530;220;27957;-73
2020/12/19 08:04:54;;;;;;;14.00;10.00;;;;;;;2.22;100.00;100651.23;624237;227;24923;-73
2020/12/19 08:07:26;;;;;;;14.70;12.75;;;;;;;2.66;100.00;100638.57;619894;229;33012;-72
2020/12/19 08:10:01;;;;;;;14.98;13.25;;;;;;;2.90;99.63;100641.53;619162;229;32837;-73
2020/12/19 08:12:31;;;;;;;16.30;13.97;;;;;;;2.55;100.00;100640.92;626717;226;23912;-72
2020/12/19 08:15:01;;;;;;;17.17;13.90;;;;;;;2.28;100.00;100646.25;626967;228;26033;-72
2020/12/19 08:17:32;;;;;;;19.77;17.25;;;;;;;2.72;100.00;100645.12;621142;229;32823;-72
2020/12/19 08:20:03;;;;;;;18.33;15.23;;;;;;;2.43;100.00;100651.02;637970;225;23654;-73
2020/12/19 08:22:37;;;;;;;18.63;15.17;;;;;;;2.63;100.00;100648.19;625708;225;26987;-73
2020/12/19 08:25:12;;;;;;;18.30;15.37;;;;;;;2.73;100.00;100654.48;639069;223;24801;-73
2020/12/19 08:27:47;;;;;;;19.07;15.10;;;;;;;2.91;100.00;100644.47;642426;223;24828;-72
2020/12/19 08:30:22;;;;;;;15.20;13.43;;;;;;;2.92;100.00;100649.14;639726;224;24828;-73
2020/12/19 08:32:55;;;;;;;17.92;15.10;;;;;;;3.67;100.00;100637.97;619784;226;32803;-75
2020/12/19 08:35:24;;;;;;;16.47;13.43;;;;;;;3.28;100.00;100648.36;625569;229;23710;-72
2020/12/19 08:37:53;;;;;;;16.57;13.97;;;;;;;3.48;100.00;100641.23;627069;228;24830;-72
2020/12/19 08:40:24;;;;;;;18.70;15.20;;;;;;;3.79;100.00;100646.69;625623;229;26013;-72
2020/12/19 08:42:57;;;;;;;18.00;13.60;;;;;;;3.93;100.00;100653.58;637223;224;24880;-71
2020/12/19 08:45:29;;;;;;;17.10;13.70;;;;;;;4.06;100.00;100649.35;625137;229;24841;-72
2020/12/19 08:48:05;;;;;;;17.70;13.53;;;;;;;4.14;100.00;100650.55;639853;224;24812;-72
2020/12/19 08:50:40;;;;;;;16.50;12.93;;;;;;;4.16;100.00;100648.70;640389;224;27051;-73
2020/12/19 08:53:18;;;;;;;16.97;15.20;;;;;;;4.75;99.79;100650.60;625095;225;33186;-73
2020/12/19 08:55:49;;;;;;;15.60;13.90;;;;;;;4.51;100.00;100654.73;622317;229;23812;-72
2020/12/19 08:58:26;;;;;;;15.80;14.20;;;;;;;5.11;99.77;100663.36;629079;225;32652;-73
2020/12/19 09:00:56;;;;;;;13.90;12.40;;;;;;;4.83;100.00;100669.92;624734;229;23967;-73
2020/12/19 09:03:30;;;;;;;14.20;12.68;;;;;;;5.53;99.04;100658.91;629637;225;32938;-73
2020/12/19 09:06:02;;;;;;;14.10;12.40;;;;;;;5.27;100.00;100670.93;633249;225;23678;-73
2020/12/19 09:08:35;;;;;;;13.87;12.27;;;;;;;5.56;100.00;100669.02;625667;229;24815;-73
2020/12/19 09:11:05;;;;;;;16.53;14.27;;;;;;;5.81;100.00;100670.79;625994;228;24805;-72
2020/12/19 09:13:38;;;;;;;30.13;23.77;;;;;;;5.93;100.00;100670.82;633293;223;24834;-72
2020/12/19 09:16:08;;;;;;;17.47;13.53;;;;;;;5.63;99.56;100672.82;626644;229;24878;-72
2020/12/19 09:18:38;;;;;;;13.60;12.17;;;;;;;5.75;99.93;100675.05;625570;228;24859;-71
2020/12/19 09:21:09;;;;;;;14.83;13.28;;;;;;;6.04;99.00;100670.53;620842;229;33097;-72
2020/12/19 09:23:43;;;;;;;20.27;14.13;;;;;;;5.65;99.28;100671.81;626020;227;23701;-72
2020/12/19 09:26:14;;;;;;;20.10;14.03;;;;;;;5.43;100.00;100683.64;638320;224;24980;-71
2020/12/19 09:28:46;;;;;;;16.87;13.93;;;;;;;5.73;99.23;100677.73;619851;229;32827;-71
2020/12/19 09:31:18;;;;;;;14.27;11.83;;;;;;;5.50;100.00;100678.00;635937;225;24265;-72
2020/12/19 09:33:48;;;;;;;12.07;9.67;;;;;;;5.54;100.00;100679.44;625015;229;25111;-72
2020/12/19 09:36:24;;;;;;;12.90;11.20;;;;;;;5.94;99.98;100675.05;628867;225;33090;-73
2020/12/19 09:38:55;;;;;;;11.73;10.53;;;;;;;5.85;100.00;100677.39;635470;224;23720;-73
2020/12/19 09:41:27;;;;;;;13.10;10.93;;;;;;;5.83;100.00;100678.78;633354;225;24873;-72
2020/12/19 09:43:57;;;;;;;13.87;11.40;;;;;;;5.93;100.00;100675.98;623366;229;24910;-72
2020/12/19 09:46:29;;;;;;;17.00;13.50;;;;;;;5.98;100.00;100683.88;624026;229;25094;-71
2020/12/19 09:49:04;;;;;;;15.77;12.90;;;;;;;6.14;100.00;100675.44;625145;229;25129;-72
2020/12/19 09:51:38;;;;;;;17.43;12.70;;;;;;;6.14;100.00;100678.84;625123;225;24783;-72
2020/12/19 09:54:14;;;;;;;17.73;14.67;;;;;;;6.21;100.00;100672.81;624674;229;24847;-73
2020/12/19 09:56:47;;;;;;;15.77;12.03;;;;;;;6.24;100.00;100673.88;624973;229;24846;-72
2020/12/19 09:59:21;;;;;;;14.83;11.50;;;;;;;6.33;100.00;100668.05;627644;228;24862;-73
2020/12/19 10:01:54;;;;;;;17.40;11.80;;;;;;;6.53;100.00;100670.09;633784;225;25222;-72
2020/12/19 10:04:32;;;;;;;14.43;12.63;;;;;;;6.75;99.52;100664.67;620196;229;43525;-72
2020/12/19 10:09:46;;;;;;;15.00;12.07;;;;;;;6.35;100.00;100667.51;650258;217;25421;-72
2020/12/19 10:14:57;;;;;;;15.63;11.73;;;;;;;6.53;100.00;100664.09;656764;217;25425;-75
2020/12/19 10:17:29;;;;;;;15.80;12.73;;;;;;;6.53;100.00;100664.92;644024;220;24813;-71
2020/12/19 10:20:00;;;;;;;16.67;12.90;;;;;;;6.50;100.00;100662.56;647005;220;24763;-72
2020/12/19 10:22:33;;;;;;;16.63;12.60;;;;;;;6.62;100.00;100666.05;659498;216;24777;-71
2020/12/19 10:25:04;;;;;;;18.60;14.10;;;;;;;6.75;100.00;100658.22;654729;216;24769;-73
2020/12/19 10:30:14;;;;;;;20.20;15.07;;;;;;;6.86;100.00;100663.45;648709;214;31911;-71
2020/12/19 10:32:44;;;;;;;23.63;13.77;;;;;;;7.06;100.00;100657.68;632801;225;24851;-73
2020/12/19 10:35:15;;;;;;;20.20;15.00;;;;;;;7.04;100.00;100653.09;635747;225;24778;-74
2020/12/19 10:37:46;;;;;;;16.40;13.53;;;;;;;6.96;99.73;100652.81;648754;220;24754;-72
2020/12/19 10:40:18;;;;;;;17.87;15.98;;;;;;;7.44;99.67;100652.25;631559;222;33606;-73
2020/12/19 10:42:51;;;;;;;18.80;14.67;;;;;;;7.22;100.00;100657.37;649883;220;23698;-73
2020/12/19 10:45:25;;;;;;;18.17;14.45;;;;;;;7.74;97.78;100650.45;632266;224;32826;-73
2020/12/19 10:47:57;;;;;;;20.12;16.77;;;;;;;7.85;97.73;100652.20;642367;220;43321;-72
2020/12/19 10:50:28;;;;;;;30.37;20.23;;;;;;;7.64;98.25;100648.19;636897;225;23690;-72
2020/12/19 10:53:03;;;;;;;22.20;16.27;;;;;;;7.58;99.37;100644.75;636491;225;24797;-73
2020/12/19 10:55:35;;;;;;;20.37;14.57;;;;;;;7.51;99.06;100642.28;637243;225;26903;-72
2020/12/19 10:58:07;;;;;;;17.83;14.30;;;;;;;7.54;99.34;100631.70;635032;225;26014;-73
2020/12/19 11:00:39;;;;;;;20.70;14.10;;;;;;;7.69;100.00;100634.42;636274;225;24819;-73
2020/12/19 11:03:12;;;;;;;19.33;14.60;;;;;;;7.76;99.44;100630.09;649523;221;24767;-73
2020/12/19 11:05:44;;;;;;;18.37;14.27;;;;;;;7.82;99.38;100620.55;636391;225;24807;-71
2020/12/19 11:08:15;;;;;;;14.90;12.10;;;;;;;7.92;99.79;100616.31;647537;220;25070;-73
2020/12/19 11:10:46;;;;;;;16.67;12.43;;;;;;;7.86;99.56;100610.30;634526;224;24787;-73
2020/12/19 11:13:17;;;;;;;14.80;12.70;;;;;;;7.87;99.33;100604.17;634135;225;25885;-74
2020/12/19 11:15:51;;;;;;;16.43;12.60;;;;;;;7.83;99.72;100604.89;645434;221;24779;-73
2020/12/19 11:18:23;;;;;;;14.60;12.50;;;;;;;8.02;100.00;100598.66;631943;225;24859;-74
2020/12/19 11:20:53;;;;;;;17.00;14.10;;;;;;;8.23;98.39;100594.03;626819;225;32745;-73
2020/12/19 11:23:23;;;;;;;17.03;13.50;;;;;;;7.90;99.31;100582.77;636134;225;24798;-73
2020/12/19 11:25:55;;;;;;;16.57;12.80;;;;;;;7.65;100.00;100586.89;649315;221;24801;-73
2020/12/19 11:28:26;;;;;;;17.82;14.00;;;;;;;7.97;99.52;100583.93;628752;225;32856;-72
2020/12/19 11:31:01;;;;;;;15.70;14.00;;;;;;;8.37;98.92;100589.91;629032;225;32868;-73
2020/12/19 11:33:31;;;;;;;17.30;14.73;;;;;;;8.31;98.27;100570.46;631589;221;32724;-73
2020/12/19 11:36:04;;;;;;;20.27;13.80;;;;;;;8.18;99.27;100578.85;635544;225;23666;-73
2020/12/19 11:38:35;;;;;;;15.33;12.30;;;;;;;8.35;98.84;100571.06;646886;221;25005;-74
2020/12/19 11:41:05;;;;;;;16.87;13.80;;;;;;;8.69;96.30;100561.87;643989;219;32728;-73
2020/12/19 11:43:36;;;;;;;16.65;13.75;;;;;;;8.68;96.08;100564.94;642497;221;32657;-74
2020/12/19 11:46:13;;;;;;;16.13;13.23;;;;;;;8.60;96.34;100566.87;637025;224;23666;-74
2020/12/19 11:48:44;;;;;;;18.80;12.00;;;;;;;8.06;98.71;100571.22;643720;220;24805;-73
2020/12/19 11:51:18;;;;;;;13.57;11.60;;;;;;;7.99;98.90;100572.16;636475;225;24847;-73
2020/12/19 11:53:47;;;;;;;13.20;10.87;;;;;;;8.08;99.11;100567.55;630213;225;24784;-74
2020/12/19 11:56:18;;;;;;;17.27;11.77;;;;;;;8.34;98.40;100549.98;647855;220;24739;-74
2020/12/19 11:58:51;;;;;;;21.33;11.90;;;;;;;8.36;98.08;100553.75;635431;225;24783;-74